sensor_id;sensor_type;location;lat;lon;timestamp;pressure;altitude;pressure_sealevel;temperature;humidity
75555;BME280;66087;53.126;17.960;2023-05-19T00:00:04;102083.27;;;9.86;51.53
75555;BME280;66087;53.126;17.960;2023-05-19T00:03:02;102084.80;;;9.86;52.27
75555;BME280;66087;53.126;17.960;2023-05-19T00:05:31;102080.90;;;9.84;52.20
75555;BME280;66087;53.126;17.960;2023-05-19T00:07:58;102078.22;;;9.81;52.12
75555;BME280;66087;53.126;17.960;2023-05-19T00:10:27;102077.36;;;9.80;52.48
75555;BME280;66087;53.126;17.960;2023-05-19T00:12:57;102079.95;;;9.77;52.74
75555;BME280;66087;53.126;17.960;2023-05-19T00:15:24;102081.20;;;9.72;53.07
75555;BME280;66087;53.126;17.960;2023-05-19T00:17:51;102078.20;;;9.69;52.77
75555;BME280;66087;53.126;17.960;2023-05-19T00:20:17;102077.11;;;9.68;53.03
75555;BME280;66087;53.126;17.960;2023-05-19T00:22:47;102077.79;;;9.66;53.29
75555;BME280;66087;53.126;17.960;2023-05-19T00:25:16;102080.97;;;9.66;53.04
75555;BME280;66087;53.126;17.960;2023-05-19T00:27:43;102076.87;;;9.68;53.27
75555;BME280;66087;53.126;17.960;2023-05-19T00:30:10;102076.95;;;9.68;53.70
75555;BME280;66087;53.126;17.960;2023-05-19T00:32:40;102074.14;;;9.66;53.67
75555;BME280;66087;53.126;17.960;2023-05-19T00:35:07;102073.70;;;9.63;53.51
75555;BME280;66087;53.126;17.960;2023-05-19T00:37:34;102071.35;;;9.61;53.87
75555;BME280;66087;53.126;17.960;2023-05-19T00:40:01;102070.00;;;9.59;53.87
75555;BME280;66087;53.126;17.960;2023-05-19T00:42:27;102069.74;;;9.58;53.76
75555;BME280;66087;53.126;17.960;2023-05-19T00:44:54;102074.86;;;9.57;54.31
75555;BME280;66087;53.126;17.960;2023-05-19T00:47:21;102067.71;;;9.51;54.30
75555;BME280;66087;53.126;17.960;2023-05-19T00:49:47;102070.94;;;9.49;54.30
75555;BME280;66087;53.126;17.960;2023-05-19T00:52:15;102068.40;;;9.45;54.75
75555;BME280;66087;53.126;17.960;2023-05-19T00:54:44;102070.06;;;9.42;54.56
75555;BME280;66087;53.126;17.960;2023-05-19T00:57:13;102071.95;;;9.38;54.84
75555;BME280;66087;53.126;17.960;2023-05-19T00:59:40;102073.13;;;9.34;55.14
75555;BME280;66087;53.126;17.960;2023-05-19T01:02:06;102070.88;;;9.29;55.09
75555;BME280;66087;53.126;17.960;2023-05-19T01:04:35;102071.16;;;9.27;54.95
75555;BME280;66087;53.126;17.960;2023-05-19T01:07:03;102072.61;;;9.25;55.29
75555;BME280;66087;53.126;17.960;2023-05-19T01:09:30;102069.91;;;9.21;55.25
75555;BME280;66087;53.126;17.960;2023-05-19T01:11:58;102067.94;;;9.19;55.30
75555;BME280;66087;53.126;17.960;2023-05-19T01:14:28;102068.43;;;9.16;55.52
75555;BME280;66087;53.126;17.960;2023-05-19T01:17:29;102063.99;;;9.15;55.39
75555;BME280;66087;53.126;17.960;2023-05-19T01:19:59;102066.51;;;9.12;55.57
75555;BME280;66087;53.126;17.960;2023-05-19T01:22:47;102064.11;;;9.08;55.84
75555;BME280;66087;53.126;17.960;2023-05-19T01:28:35;102067.65;;;9.02;56.44
75555;BME280;66087;53.126;17.960;2023-05-19T01:31:05;102066.43;;;8.98;56.39
75555;BME280;66087;53.126;17.960;2023-05-19T01:33:36;102065.74;;;8.94;56.35
75555;BME280;66087;53.126;17.960;2023-05-19T01:36:07;102067.95;;;8.92;56.72
75555;BME280;66087;53.126;17.960;2023-05-19T01:38:37;102069.77;;;8.89;56.71
75555;BME280;66087;53.126;17.960;2023-05-19T01:41:05;102063.54;;;8.87;56.76
75555;BME280;66087;53.126;17.960;2023-05-19T01:43:34;102064.54;;;8.87;56.88
75555;BME280;66087;53.126;17.960;2023-05-19T01:46:01;102066.27;;;8.84;57.06
75555;BME280;66087;53.126;17.960;2023-05-19T01:48:29;102067.55;;;8.81;57.40
75555;BME280;66087;53.126;17.960;2023-05-19T01:50:57;102071.11;;;8.77;57.20
75555;BME280;66087;53.126;17.960;2023-05-19T01:53:25;102068.77;;;8.76;57.60
75555;BME280;66087;53.126;17.960;2023-05-19T01:55:53;102067.07;;;8.72;57.44
75555;BME280;66087;53.126;17.960;2023-05-19T02:01:34;102066.10;;;8.74;57.47
75555;BME280;66087;53.126;17.960;2023-05-19T02:04:18;102066.80;;;8.75;57.64
75555;BME280;66087;53.126;17.960;2023-05-19T02:07:11;102067.50;;;8.75;57.46
75555;BME280;66087;53.126;17.960;2023-05-19T02:12:28;102060.43;;;8.77;57.36
75555;BME280;66087;53.126;17.960;2023-05-19T02:15:09;102066.13;;;8.80;57.51
75555;BME280;66087;53.126;17.960;2023-05-19T02:17:40;102064.17;;;8.80;57.65
75555;BME280;66087;53.126;17.960;2023-05-19T02:20:09;102065.92;;;8.78;57.62
75555;BME280;66087;53.126;17.960;2023-05-19T02:22:37;102063.57;;;8.80;57.80
75555;BME280;66087;53.126;17.960;2023-05-19T02:25:05;102061.71;;;8.80;57.75
75555;BME280;66087;53.126;17.960;2023-05-19T02:27:33;102063.83;;;8.82;58.03
75555;BME280;66087;53.126;17.960;2023-05-19T02:30:03;102060.82;;;8.82;57.79
75555;BME280;66087;53.126;17.960;2023-05-19T02:32:31;102057.64;;;8.82;58.02
75555;BME280;66087;53.126;17.960;2023-05-19T02:34:58;102061.04;;;8.81;58.29
75555;BME280;66087;53.126;17.960;2023-05-19T02:37:26;102058.23;;;8.81;58.06
75555;BME280;66087;53.126;17.960;2023-05-19T02:39:54;102056.02;;;8.83;57.96
75555;BME280;66087;53.126;17.960;2023-05-19T02:42:21;102055.66;;;8.84;58.32
75555;BME280;66087;53.126;17.960;2023-05-19T02:44:49;102051.55;;;8.84;58.23
75555;BME280;66087;53.126;17.960;2023-05-19T02:47:16;102053.16;;;8.83;57.95
75555;BME280;66087;53.126;17.960;2023-05-19T02:49:45;102049.89;;;8.82;58.26
75555;BME280;66087;53.126;17.960;2023-05-19T02:52:11;102045.63;;;8.82;58.29
75555;BME280;66087;53.126;17.960;2023-05-19T02:54:38;102044.75;;;8.85;58.05
75555;BME280;66087;53.126;17.960;2023-05-19T02:57:05;102043.58;;;8.89;58.02
75555;BME280;66087;53.126;17.960;2023-05-19T02:59:32;102043.91;;;8.90;58.20
75555;BME280;66087;53.126;17.960;2023-05-19T03:01:59;102046.27;;;8.88;58.45
75555;BME280;66087;53.126;17.960;2023-05-19T03:04:32;102047.91;;;8.85;58.53
75555;BME280;66087;53.126;17.960;2023-05-19T03:06:58;102049.10;;;8.81;58.46
75555;BME280;66087;53.126;17.960;2023-05-19T03:09:27;102048.65;;;8.82;58.46
75555;BME280;66087;53.126;17.960;2023-05-19T03:11:54;102049.71;;;8.85;58.63
75555;BME280;66087;53.126;17.960;2023-05-19T03:14:21;102056.25;;;8.87;58.53
75555;BME280;66087;53.126;17.960;2023-05-19T03:16:49;102055.44;;;8.90;58.50
75555;BME280;66087;53.126;17.960;2023-05-19T03:19:15;102055.69;;;8.91;58.66
75555;BME280;66087;53.126;17.960;2023-05-19T03:21:43;102054.41;;;8.88;58.82
75555;BME280;66087;53.126;17.960;2023-05-19T03:24:10;102052.30;;;8.87;59.17
75555;BME280;66087;53.126;17.960;2023-05-19T03:26:37;102050.14;;;8.87;59.11
75555;BME280;66087;53.126;17.960;2023-05-19T03:29:04;102050.48;;;8.89;58.79
75555;BME280;66087;53.126;17.960;2023-05-19T03:31:34;102053.39;;;8.97;58.65
75555;BME280;66087;53.126;17.960;2023-05-19T03:34:01;102047.95;;;9.05;58.56
75555;BME280;66087;53.126;17.960;2023-05-19T03:36:31;102050.86;;;9.13;58.72
75555;BME280;66087;53.126;17.960;2023-05-19T03:38:58;102050.61;;;9.17;59.16
75555;BME280;66087;53.126;17.960;2023-05-19T03:41:25;102052.60;;;9.21;58.87
75555;BME280;66087;53.126;17.960;2023-05-19T03:43:51;102049.89;;;9.26;58.79
75555;BME280;66087;53.126;17.960;2023-05-19T03:46:18;102055.88;;;9.32;58.78
75555;BME280;66087;53.126;17.960;2023-05-19T03:49:00;102052.72;;;9.38;58.88
75555;BME280;66087;53.126;17.960;2023-05-19T03:51:35;102049.91;;;9.42;59.07
75555;BME280;66087;53.126;17.960;2023-05-19T03:54:08;102050.55;;;9.50;58.78
75555;BME280;66087;53.126;17.960;2023-05-19T03:56:38;102052.34;;;9.56;58.45
75555;BME280;66087;53.126;17.960;2023-05-19T03:59:07;102050.87;;;9.67;58.23
75555;BME280;66087;53.126;17.960;2023-05-19T04:01:36;102055.98;;;9.78;58.29
75555;BME280;66087;53.126;17.960;2023-05-19T04:04:05;102061.70;;;9.87;58.23
75555;BME280;66087;53.126;17.960;2023-05-19T04:06:32;102067.05;;;9.94;58.08
75555;BME280;66087;53.126;17.960;2023-05-19T04:09:01;102067.61;;;10.01;58.06
75555;BME280;66087;53.126;17.960;2023-05-19T04:11:29;102063.94;;;10.07;57.91
75555;BME280;66087;53.126;17.960;2023-05-19T04:13:56;102069.02;;;10.14;57.67
75555;BME280;66087;53.126;17.960;2023-05-19T04:16:22;102070.47;;;10.24;57.67
75555;BME280;66087;53.126;17.960;2023-05-19T04:18:49;102073.20;;;10.32;57.42
75555;BME280;66087;53.126;17.960;2023-05-19T04:21:18;102077.88;;;10.40;57.15
75555;BME280;66087;53.126;17.960;2023-05-19T04:23:47;102078.96;;;10.48;57.02
75555;BME280;66087;53.126;17.960;2023-05-19T04:26:16;102078.95;;;10.54;57.10
75555;BME280;66087;53.126;17.960;2023-05-19T04:28:51;102077.05;;;10.57;57.10
75555;BME280;66087;53.126;17.960;2023-05-19T04:31:19;102077.36;;;10.59;57.06
75555;BME280;66087;53.126;17.960;2023-05-19T04:33:47;102076.70;;;10.63;57.01
75555;BME280;66087;53.126;17.960;2023-05-19T04:36:23;102081.53;;;10.69;56.90
75555;BME280;66087;53.126;17.960;2023-05-19T04:38:53;102082.84;;;10.78;56.84
75555;BME280;66087;53.126;17.960;2023-05-19T04:41:21;102083.60;;;10.84;56.93
75555;BME280;66087;53.126;17.960;2023-05-19T04:43:49;102084.47;;;10.88;56.97
75555;BME280;66087;53.126;17.960;2023-05-19T04:46:19;102083.82;;;10.91;56.80
75555;BME280;66087;53.126;17.960;2023-05-19T04:48:50;102082.08;;;10.96;56.73
75555;BME280;66087;53.126;17.960;2023-05-19T04:51:23;102079.30;;;10.99;56.58
75555;BME280;66087;53.126;17.960;2023-05-19T04:53:54;102077.79;;;11.04;56.34
75555;BME280;66087;53.126;17.960;2023-05-19T04:56:22;102081.98;;;11.11;56.23
75555;BME280;66087;53.126;17.960;2023-05-19T04:58:51;102084.60;;;11.12;56.16
75555;BME280;66087;53.126;17.960;2023-05-19T05:01:26;102086.40;;;11.12;56.03
75555;BME280;66087;53.126;17.960;2023-05-19T05:03:54;102084.49;;;11.17;55.92
75555;BME280;66087;53.126;17.960;2023-05-19T05:06:24;102087.11;;;11.23;55.77
75555;BME280;66087;53.126;17.960;2023-05-19T05:08:52;102088.87;;;11.28;55.68
75555;BME280;66087;53.126;17.960;2023-05-19T05:11:19;102085.45;;;11.39;55.71
75555;BME280;66087;53.126;17.960;2023-05-19T05:13:46;102088.48;;;11.51;55.19
75555;BME280;66087;53.126;17.960;2023-05-19T05:16:14;102090.63;;;11.57;55.04
75555;BME280;66087;53.126;17.960;2023-05-19T05:18:41;102091.46;;;11.67;54.87
75555;BME280;66087;53.126;17.960;2023-05-19T05:21:08;102088.83;;;11.79;54.41
75555;BME280;66087;53.126;17.960;2023-05-19T05:23:35;102091.91;;;11.89;54.19
75555;BME280;66087;53.126;17.960;2023-05-19T05:26:09;102090.88;;;11.99;53.70
75555;BME280;66087;53.126;17.960;2023-05-19T05:28:47;102089.97;;;12.08;53.81
75555;BME280;66087;53.126;17.960;2023-05-19T05:31:14;102088.08;;;12.18;53.32
75555;BME280;66087;53.126;17.960;2023-05-19T05:33:43;102085.23;;;12.29;53.37
75555;BME280;66087;53.126;17.960;2023-05-19T05:36:12;102082.91;;;12.37;53.16
75555;BME280;66087;53.126;17.960;2023-05-19T05:38:40;102084.49;;;12.47;53.24
75555;BME280;66087;53.126;17.960;2023-05-19T05:41:09;102083.73;;;12.53;52.99
75555;BME280;66087;53.126;17.960;2023-05-19T05:43:43;102082.27;;;12.58;52.77
75555;BME280;66087;53.126;17.960;2023-05-19T05:46:12;102079.52;;;12.62;52.77
75555;BME280;66087;53.126;17.960;2023-05-19T05:48:41;102083.36;;;12.67;52.60
75555;BME280;66087;53.126;17.960;2023-05-19T05:51:08;102090.79;;;12.70;52.46
75555;BME280;66087;53.126;17.960;2023-05-19T05:53:40;102085.17;;;12.75;52.68
75555;BME280;66087;53.126;17.960;2023-05-19T05:56:10;102084.46;;;12.78;52.19
75555;BME280;66087;53.126;17.960;2023-05-19T05:58:48;102084.87;;;12.86;52.54
75555;BME280;66087;53.126;17.960;2023-05-19T06:01:15;102081.84;;;12.93;52.38
75555;BME280;66087;53.126;17.960;2023-05-19T06:03:43;102082.85;;;12.92;51.93
75555;BME280;66087;53.126;17.960;2023-05-19T06:06:12;102083.95;;;12.90;52.09
75555;BME280;66087;53.126;17.960;2023-05-19T06:08:39;102085.11;;;12.94;52.29
75555;BME280;66087;53.126;17.960;2023-05-19T06:11:08;102084.80;;;13.03;52.24
75555;BME280;66087;53.126;17.960;2023-05-19T06:13:38;102085.52;;;13.11;52.29
75555;BME280;66087;53.126;17.960;2023-05-19T06:16:10;102088.42;;;13.17;51.78
75555;BME280;66087;53.126;17.960;2023-05-19T06:18:41;102088.96;;;13.21;51.92
75555;BME280;66087;53.126;17.960;2023-05-19T06:21:09;102087.63;;;13.28;52.00
75555;BME280;66087;53.126;17.960;2023-05-19T06:23:40;102085.91;;;13.36;51.91
75555;BME280;66087;53.126;17.960;2023-05-19T06:26:08;102086.67;;;13.39;51.60
75555;BME280;66087;53.126;17.960;2023-05-19T06:28:35;102090.05;;;13.39;51.77
75555;BME280;66087;53.126;17.960;2023-05-19T06:31:02;102093.23;;;13.46;51.81
75555;BME280;66087;53.126;17.960;2023-05-19T06:33:48;102093.61;;;13.55;51.83
75555;BME280;66087;53.126;17.960;2023-05-19T06:36:22;102081.02;;;13.62;51.48
75555;BME280;66087;53.126;17.960;2023-05-19T06:39:09;102099.05;;;13.92;51.32
75555;BME280;66087;53.126;17.960;2023-05-19T06:41:36;102098.58;;;14.17;51.12
75555;BME280;66087;53.126;17.960;2023-05-19T06:44:07;102097.15;;;14.41;50.98
75555;BME280;66087;53.126;17.960;2023-05-19T06:47:00;102094.82;;;14.66;50.25
75555;BME280;66087;53.126;17.960;2023-05-19T06:49:52;102096.71;;;14.97;49.82
75555;BME280;66087;53.126;17.960;2023-05-19T06:52:24;102094.11;;;15.19;49.59
75555;BME280;66087;53.126;17.960;2023-05-19T06:54:54;102094.07;;;15.40;49.18
75555;BME280;66087;53.126;17.960;2023-05-19T06:57:22;102093.74;;;15.59;49.28
75555;BME280;66087;53.126;17.960;2023-05-19T06:59:49;102093.61;;;15.78;48.95
75555;BME280;66087;53.126;17.960;2023-05-19T07:02:17;102097.95;;;15.96;48.11
75555;BME280;66087;53.126;17.960;2023-05-19T07:04:44;102096.50;;;16.06;47.64
75555;BME280;66087;53.126;17.960;2023-05-19T07:07:12;102100.01;;;16.08;48.02
75555;BME280;66087;53.126;17.960;2023-05-19T07:09:42;102101.08;;;16.15;47.76
75555;BME280;66087;53.126;17.960;2023-05-19T07:12:08;102110.61;;;16.25;47.80
75555;BME280;66087;53.126;17.960;2023-05-19T07:14:35;102114.38;;;16.31;47.58
75555;BME280;66087;53.126;17.960;2023-05-19T07:17:04;102118.54;;;16.31;46.73
75555;BME280;66087;53.126;17.960;2023-05-19T07:19:32;102119.04;;;16.28;46.63
75555;BME280;66087;53.126;17.960;2023-05-19T07:22:21;102118.54;;;16.19;46.79
75555;BME280;66087;53.126;17.960;2023-05-19T07:24:59;102117.21;;;16.18;46.88
75555;BME280;66087;53.126;17.960;2023-05-19T07:27:27;102116.01;;;16.21;46.77
75555;BME280;66087;53.126;17.960;2023-05-19T07:30:04;102116.26;;;16.25;46.33
75555;BME280;66087;53.126;17.960;2023-05-19T07:32:33;102110.41;;;16.23;46.51
75555;BME280;66087;53.126;17.960;2023-05-19T07:35:00;102112.35;;;16.30;46.01
75555;BME280;66087;53.126;17.960;2023-05-19T07:37:27;102112.67;;;16.35;46.24
75555;BME280;66087;53.126;17.960;2023-05-19T07:39:54;102111.73;;;16.47;45.86
75555;BME280;66087;53.126;17.960;2023-05-19T07:42:21;102112.00;;;16.58;45.96
75555;BME280;66087;53.126;17.960;2023-05-19T07:44:49;102111.31;;;16.62;45.60
75555;BME280;66087;53.126;17.960;2023-05-19T07:47:17;102107.26;;;16.60;45.47
75555;BME280;66087;53.126;17.960;2023-05-19T07:49:43;102107.36;;;16.58;45.76
75555;BME280;66087;53.126;17.960;2023-05-19T07:52:12;102104.73;;;16.61;45.72
75555;BME280;66087;53.126;17.960;2023-05-19T07:54:39;102101.37;;;16.66;45.44
75555;BME280;66087;53.126;17.960;2023-05-19T07:57:06;102098.52;;;16.67;45.41
75555;BME280;66087;53.126;17.960;2023-05-19T07:59:32;102096.42;;;16.66;45.44
75555;BME280;66087;53.126;17.960;2023-05-19T08:01:59;102095.60;;;16.68;45.72
75555;BME280;66087;53.126;17.960;2023-05-19T08:04:27;102095.29;;;16.79;45.63
75555;BME280;66087;53.126;17.960;2023-05-19T08:06:54;102097.86;;;16.91;45.31
75555;BME280;66087;53.126;17.960;2023-05-19T08:09:21;102097.77;;;16.96;45.08
75555;BME280;66087;53.126;17.960;2023-05-19T08:11:48;102096.23;;;17.03;45.34
75555;BME280;66087;53.126;17.960;2023-05-19T08:14:15;102091.54;;;17.12;45.21
75555;BME280;66087;53.126;17.960;2023-05-19T08:16:42;102087.27;;;17.14;44.89
75555;BME280;66087;53.126;17.960;2023-05-19T08:19:13;102085.64;;;17.17;44.55
75555;BME280;66087;53.126;17.960;2023-05-19T08:21:40;102085.57;;;17.21;44.56
75555;BME280;66087;53.126;17.960;2023-05-19T08:24:07;102085.40;;;17.26;44.55
75555;BME280;66087;53.126;17.960;2023-05-19T08:27:00;102084.93;;;17.30;44.33
75555;BME280;66087;53.126;17.960;2023-05-19T08:29:27;102080.84;;;17.30;44.25
75555;BME280;66087;53.126;17.960;2023-05-19T08:31:56;102088.66;;;17.29;44.31
75555;BME280;66087;53.126;17.960;2023-05-19T08:34:28;102090.20;;;17.35;44.23
75555;BME280;66087;53.126;17.960;2023-05-19T08:37:03;102093.67;;;17.43;44.52
75555;BME280;66087;53.126;17.960;2023-05-19T08:39:32;102094.98;;;17.52;44.42
75555;BME280;66087;53.126;17.960;2023-05-19T08:42:07;102094.15;;;17.61;44.36
75555;BME280;66087;53.126;17.960;2023-05-19T08:44:38;102095.48;;;17.65;44.31
75555;BME280;66087;53.126;17.960;2023-05-19T08:47:45;102094.09;;;17.72;44.13
75555;BME280;66087;53.126;17.960;2023-05-19T08:50:16;102097.40;;;17.84;44.18
75555;BME280;66087;53.126;17.960;2023-05-19T08:53:03;102093.79;;;17.96;44.10
75555;BME280;66087;53.126;17.960;2023-05-19T08:55:54;102088.50;;;18.11;43.58
75555;BME280;66087;53.126;17.960;2023-05-19T08:58:25;102087.51;;;18.13;43.11
75555;BME280;66087;53.126;17.960;2023-05-19T09:01:16;102085.05;;;18.18;43.21
75555;BME280;66087;53.126;17.960;2023-05-19T09:08:03;102084.60;;;18.28;43.24
75555;BME280;66087;53.126;17.960;2023-05-19T09:10:50;102083.34;;;18.43;42.81
75555;BME280;66087;53.126;17.960;2023-05-19T09:13:38;102082.27;;;18.60;42.65
75555;BME280;66087;53.126;17.960;2023-05-19T09:16:51;102079.52;;;18.89;42.58
75555;BME280;66087;53.126;17.960;2023-05-19T09:19:56;102076.41;;;19.13;41.71
75555;BME280;66087;53.126;17.960;2023-05-19T09:22:55;102034.60;;;18.97;41.48
75555;BME280;66087;53.126;17.960;2023-05-19T09:25:23;102080.38;;;19.46;41.68
75555;BME280;66087;53.126;17.960;2023-05-19T09:27:55;102077.83;;;19.76;41.51
75555;BME280;66087;53.126;17.960;2023-05-19T09:31:16;102077.48;;;20.23;40.63
75555;BME280;66087;53.126;17.960;2023-05-19T09:33:43;102059.32;;;20.37;39.96
75555;BME280;66087;53.126;17.960;2023-05-19T09:36:15;102074.56;;;20.59;39.85
75555;BME280;66087;53.126;17.960;2023-05-19T09:39:11;102063.06;;;20.56;38.45
75555;BME280;66087;53.126;17.960;2023-05-19T09:41:49;102071.45;;;20.51;39.04
75555;BME280;66087;53.126;17.960;2023-05-19T09:44:22;102066.81;;;20.64;39.56
75555;BME280;66087;53.126;17.960;2023-05-19T09:46:51;102071.98;;;20.83;38.43
75555;BME280;66087;53.126;17.960;2023-05-19T09:49:20;102078.33;;;20.94;38.82
75555;BME280;66087;53.126;17.960;2023-05-19T09:52:00;102077.65;;;21.05;38.74
75555;BME280;66087;53.126;17.960;2023-05-19T09:54:36;102080.66;;;20.98;38.72
75555;BME280;66087;53.126;17.960;2023-05-19T09:57:06;102075.04;;;21.00;38.16
75555;BME280;66087;53.126;17.960;2023-05-19T09:59:33;102076.85;;;20.98;38.25
75555;BME280;66087;53.126;17.960;2023-05-19T10:02:00;102073.00;;;20.88;38.32
75555;BME280;66087;53.126;17.960;2023-05-19T10:04:28;102072.58;;;20.89;38.51
75555;BME280;66087;53.126;17.960;2023-05-19T10:06:57;102073.12;;;20.89;38.60
75555;BME280;66087;53.126;17.960;2023-05-19T10:09:27;102067.40;;;20.93;38.22
75555;BME280;66087;53.126;17.960;2023-05-19T10:11:55;102065.81;;;20.86;38.18
75555;BME280;66087;53.126;17.960;2023-05-19T10:14:25;102067.98;;;20.80;38.31
75555;BME280;66087;53.126;17.960;2023-05-19T10:16:54;102066.17;;;20.77;38.09
75555;BME280;66087;53.126;17.960;2023-05-19T10:19:24;102065.73;;;20.71;37.92
75555;BME280;66087;53.126;17.960;2023-05-19T10:21:52;102068.58;;;20.68;37.66
75555;BME280;66087;53.126;17.960;2023-05-19T10:24:19;102070.78;;;20.57;37.70
75555;BME280;66087;53.126;17.960;2023-05-19T10:26:52;102072.84;;;20.56;38.32
75555;BME280;66087;53.126;17.960;2023-05-19T10:29:29;102074.52;;;20.51;37.54
75555;BME280;66087;53.126;17.960;2023-05-19T10:32:01;102077.41;;;20.54;38.02
75555;BME280;66087;53.126;17.960;2023-05-19T10:37:34;102079.91;;;20.82;37.87
75555;BME280;66087;53.126;17.960;2023-05-19T10:40:10;102080.02;;;21.05;37.84
75555;BME280;66087;53.126;17.960;2023-05-19T10:45:43;102069.22;;;21.44;37.68
75555;BME280;66087;53.126;17.960;2023-05-19T10:48:13;102067.66;;;21.63;37.22
75555;BME280;66087;53.126;17.960;2023-05-19T10:50:44;102069.91;;;21.55;36.70
75555;BME280;66087;53.126;17.960;2023-05-19T10:53:15;102070.36;;;21.45;36.97
75555;BME280;66087;53.126;17.960;2023-05-19T10:55:50;102069.33;;;21.52;37.27
75555;BME280;66087;53.126;17.960;2023-05-19T11:01:07;102079.12;;;21.65;36.75
75555;BME280;66087;53.126;17.960;2023-05-19T11:03:52;102083.02;;;21.58;37.00
75555;BME280;66087;53.126;17.960;2023-05-19T11:06:30;102085.44;;;21.39;37.06
75555;BME280;66087;53.126;17.960;2023-05-19T11:09:12;102051.75;;;20.63;37.29
75555;BME280;66087;53.126;17.960;2023-05-19T11:12:40;102089.20;;;20.43;38.03
75555;BME280;66087;53.126;17.960;2023-05-19T11:15:11;102095.80;;;20.07;38.70
75555;BME280;66087;53.126;17.960;2023-05-19T11:17:40;102094.98;;;19.77;39.48
75555;BME280;66087;53.126;17.960;2023-05-19T11:20:23;102089.48;;;19.44;40.54
75555;BME280;66087;53.126;17.960;2023-05-19T11:23:06;102091.17;;;18.96;41.49
75555;BME280;66087;53.126;17.960;2023-05-19T11:28:23;102090.16;;;18.33;44.47
75555;BME280;66087;53.126;17.960;2023-05-19T11:30:54;102091.17;;;18.23;45.57
75555;BME280;66087;53.126;17.960;2023-05-19T11:33:22;102087.38;;;18.20;45.54
75555;BME280;66087;53.126;17.960;2023-05-19T11:35:54;102066.94;;;18.01;46.52
75555;BME280;66087;53.126;17.960;2023-05-19T11:38:27;102090.16;;;18.11;46.62
75555;BME280;66087;53.126;17.960;2023-05-19T11:41:02;102087.66;;;18.10;46.93
75555;BME280;66087;53.126;17.960;2023-05-19T11:43:31;102090.33;;;18.04;47.65
75555;BME280;66087;53.126;17.960;2023-05-19T11:45:58;102091.61;;;17.91;48.22
75555;BME280;66087;53.126;17.960;2023-05-19T11:48:28;102091.09;;;17.73;48.21
75555;BME280;66087;53.126;17.960;2023-05-19T11:50:56;102090.50;;;17.49;48.27
75555;BME280;66087;53.126;17.960;2023-05-19T11:53:25;102084.68;;;17.31;48.13
75555;BME280;66087;53.126;17.960;2023-05-19T11:55:53;102084.76;;;17.13;50.34
75555;BME280;66087;53.126;17.960;2023-05-19T11:58:24;102075.84;;;17.02;49.71
75555;BME280;66087;53.126;17.960;2023-05-19T12:00:52;102078.17;;;16.93;50.10
75555;BME280;66087;53.126;17.960;2023-05-19T12:03:20;102078.98;;;16.89;49.27
75555;BME280;66087;53.126;17.960;2023-05-19T12:05:48;102081.83;;;16.81;50.52
75555;BME280;66087;53.126;17.960;2023-05-19T12:08:16;102084.93;;;16.68;51.76
75555;BME280;66087;53.126;17.960;2023-05-19T12:10:47;102087.27;;;16.58;51.88
75555;BME280;66087;53.126;17.960;2023-05-19T12:13:16;102092.98;;;16.42;52.73
75555;BME280;66087;53.126;17.960;2023-05-19T12:15:43;102089.52;;;16.26;52.52
75555;BME280;66087;53.126;17.960;2023-05-19T12:18:14;102094.73;;;16.11;52.06
75555;BME280;66087;53.126;17.960;2023-05-19T12:20:43;102092.79;;;16.02;53.60
75555;BME280;66087;53.126;17.960;2023-05-19T12:23:10;102089.62;;;16.05;53.36
75555;BME280;66087;53.126;17.960;2023-05-19T12:25:42;102088.52;;;16.17;52.85
75555;BME280;66087;53.126;17.960;2023-05-19T12:28:09;102087.46;;;16.38;52.80
75555;BME280;66087;53.126;17.960;2023-05-19T12:30:36;102087.40;;;16.53;52.19
75555;BME280;66087;53.126;17.960;2023-05-19T12:33:04;102083.50;;;16.64;52.45
75555;BME280;66087;53.126;17.960;2023-05-19T12:35:31;102085.20;;;16.82;51.64
75555;BME280;66087;53.126;17.960;2023-05-19T12:38:03;102087.50;;;17.04;51.94
75555;BME280;66087;53.126;17.960;2023-05-19T12:40:35;102088.05;;;17.19;52.16
75555;BME280;66087;53.126;17.960;2023-05-19T12:43:02;102087.48;;;17.41;52.19
75555;BME280;66087;53.126;17.960;2023-05-19T12:45:34;102086.36;;;17.69;51.86
75555;BME280;66087;53.126;17.960;2023-05-19T12:48:05;102085.00;;;17.87;50.90
75555;BME280;66087;53.126;17.960;2023-05-19T12:50:36;102079.19;;;17.98;50.15
75555;BME280;66087;53.126;17.960;2023-05-19T12:53:07;102082.86;;;18.07;50.12
75555;BME280;66087;53.126;17.960;2023-05-19T12:55:39;102074.29;;;17.99;50.15
75555;BME280;66087;53.126;17.960;2023-05-19T12:58:11;102077.80;;;17.97;50.27
75555;BME280;66087;53.126;17.960;2023-05-19T13:00:43;102076.92;;;17.97;50.19
75555;BME280;66087;53.126;17.960;2023-05-19T13:03:15;102070.27;;;17.93;50.79
75555;BME280;66087;53.126;17.960;2023-05-19T13:05:46;102073.59;;;17.92;50.90
75555;BME280;66087;53.126;17.960;2023-05-19T13:08:17;102072.84;;;17.97;50.85
75555;BME280;66087;53.126;17.960;2023-05-19T13:10:46;102066.63;;;17.97;50.95
75555;BME280;66087;53.126;17.960;2023-05-19T13:13:18;102068.41;;;17.83;52.17
75555;BME280;66087;53.126;17.960;2023-05-19T13:15:50;102067.32;;;17.66;53.02
75555;BME280;66087;53.126;17.960;2023-05-19T13:18:17;102061.60;;;17.53;52.71
75555;BME280;66087;53.126;17.960;2023-05-19T13:20:44;102060.48;;;17.36;53.26
75555;BME280;66087;53.126;17.960;2023-05-19T13:23:13;102060.43;;;17.17;53.36
75555;BME280;66087;53.126;17.960;2023-05-19T13:25:40;102060.05;;;17.03;53.51
75555;BME280;66087;53.126;17.960;2023-05-19T13:28:08;102058.48;;;16.88;53.96